Time;durP1;ratioP1;P1;durP2;ratioP2;P2;SDS_P1;SDS_P2;PMS_P1;PMS_P2;Temp;Humidity;BMP_temperature;BMP_pressure;BME280_temperature;BME280_humidity;BME280_pressure;Samples;Min_cycle;Max_cycle;Signal;HPM_P1;HPM_P2
2023/12/07 00:02:23;;;;;;;;;;;;;;;5.26;62.29;100778.94;5021523;28;19925;-84
2023/12/07 00:05:12;;;;;;;;;;;;;;;5.17;61.60;100777.91;5023269;28;19918;-84
2023/12/07 00:08:04;;;;;;;;;;;;;;;5.20;62.69;100776.53;5034401;28;19917;-84
2023/12/07 00:10:56;;;;;;;;;;;;;;;5.38;63.79;100773.22;5032662;28;19917;-84
2023/12/07 00:13:48;;;;;;;;;;;;;;;5.24;62.63;100772.19;5043199;28;19921;-85
2023/12/07 00:16:40;;;;;;;;;;;;;;;5.32;63.65;100774.31;5035264;28;19921;-84
2023/12/07 00:19:32;;;;;;;;;;;;;;;5.26;63.21;100781.63;5045355;28;19924;-84
2023/12/07 00:22:24;;;;;;;;;;;;;;;5.36;63.84;100783.47;5039837;28;19917;-84
2023/12/07 00:25:19;;;;;;;;;;;;;;;5.66;63.72;100775.16;5039697;28;19917;-84
2023/12/07 00:28:11;;;;;;;;;;;;;;;5.65;63.00;100775.44;5040113;28;19917;-84
2023/12/07 00:31:01;;;;;;;;;;;;;;;5.51;63.11;100775.28;5041571;28;19921;-84
2023/12/07 00:34:00;;;;;;;;;;;;;;;5.64;63.44;100790.81;5039623;28;19917;-84
2023/12/07 00:36:50;;;;;;;;;;;;;;;5.53;64.31;100789.31;5041786;28;19921;-84
2023/12/07 00:39:43;;;;;;;;;;;;;;;5.55;64.96;100793.31;5039280;28;19921;-83
2023/12/07 00:42:35;;;;;;;;;;;;;;;5.80;64.14;100797.72;5039493;28;19918;-84
2023/12/07 00:45:24;;;;;;;;;;;;;;;5.66;63.82;100798.63;5040441;28;19917;-84
2023/12/07 00:48:14;;;;;;;;;;;;;;;5.63;64.64;100799.22;5039796;28;19921;-83
2023/12/07 00:51:06;;;;;;;;;;;;;;;5.47;64.92;100802.00;5042003;28;20386;-84
2023/12/07 00:53:55;;;;;;;;;;;;;;;5.40;64.71;100808.78;5039904;28;19917;-84
2023/12/07 00:56:47;;;;;;;;;;;;;;;5.48;64.58;100808.22;5040408;28;19917;-84
2023/12/07 00:59:36;;;;;;;;;;;;;;;5.58;65.61;100813.53;5041810;28;19921;-83
2023/12/07 01:02:28;;;;;;;;;;;;;;;5.73;65.35;100818.03;5039764;28;19917;-84
2023/12/07 01:05:21;;;;;;;;;;;;;;;5.80;64.80;100826.59;5043259;28;19917;-84
2023/12/07 01:08:13;;;;;;;;;;;;;;;5.71;64.70;100826.41;5039458;28;19918;-84
2023/12/07 01:11:05;;;;;;;;;;;;;;;5.69;64.85;100836.66;5044342;28;19921;-84
2023/12/07 01:13:54;;;;;;;;;;;;;;;5.28;65.45;100835.28;5026171;28;19921;-84
2023/12/07 01:16:44;;;;;;;;;;;;;;;5.51;68.07;100834.59;5027382;28;19921;-83
2023/12/07 01:19:36;;;;;;;;;;;;;;;5.86;68.24;100831.69;5040930;28;19916;-84
2023/12/07 01:22:26;;;;;;;;;;;;;;;5.89;66.69;100824.97;5040313;28;19925;-84
2023/12/07 01:25:19;;;;;;;;;;;;;;;6.01;65.94;100831.59;5041359;28;19917;-84
2023/12/07 01:28:12;;;;;;;;;;;;;;;6.09;65.33;100829.41;5038894;28;20318;-84
2023/12/07 01:31:02;;;;;;;;;;;;;;;6.00;65.12;100837.28;5027128;28;20404;-84
2023/12/07 01:33:51;;;;;;;;;;;;;;;6.03;64.06;100836.72;5040439;28;19921;-84
2023/12/07 01:36:44;;;;;;;;;;;;;;;5.93;64.83;100840.31;5029031;28;19917;-84
2023/12/07 01:39:36;;;;;;;;;;;;;;;5.92;65.52;100833.28;5034595;28;19917;-84
2023/12/07 01:42:26;;;;;;;;;;;;;;;6.03;65.01;100835.91;5019742;28;19917;-84
2023/12/07 01:45:17;;;;;;;;;;;;;;;5.96;66.18;100845.13;5022614;28;19918;-84
2023/12/07 01:48:08;;;;;;;;;;;;;;;5.93;64.08;100842.19;5033520;28;19917;-84
2023/12/07 01:51:00;;;;;;;;;;;;;;;6.05;65.35;100842.63;5023639;28;19921;-84
2023/12/07 01:53:50;;;;;;;;;;;;;;;5.93;64.68;100851.09;5033399;28;19925;-84
2023/12/07 01:56:42;;;;;;;;;;;;;;;5.57;63.14;100850.50;5053607;28;19922;-84
2023/12/07 01:59:35;;;;;;;;;;;;;;;5.38;64.94;100846.03;5023391;28;19917;-84
2023/12/07 02:02:27;;;;;;;;;;;;;;;5.47;64.23;100847.03;5021102;28;19918;-84
2023/12/07 02:05:19;;;;;;;;;;;;;;;5.29;65.29;100844.97;5025041;28;19917;-83
2023/12/07 02:08:11;;;;;;;;;;;;;;;5.18;65.19;100836.91;5021174;28;20154;-84
2023/12/07 02:11:03;;;;;;;;;;;;;;;5.03;63.79;100838.88;5021777;28;19925;-84
2023/12/07 02:13:55;;;;;;;;;;;;;;;5.14;64.89;100835.06;5034366;28;19922;-84
2023/12/07 02:16:45;;;;;;;;;;;;;;;5.31;63.35;100830.13;5022778;28;20290;-85
2023/12/07 02:19:38;;;;;;;;;;;;;;;5.20;63.13;100820.47;5019913;28;19917;-85
2023/12/07 02:22:31;;;;;;;;;;;;;;;5.47;63.12;100820.88;5020155;28;19917;-85
2023/12/07 02:25:24;;;;;;;;;;;;;;;5.51;61.55;100818.44;5020977;28;19922;-84
2023/12/07 02:28:16;;;;;;;;;;;;;;;5.40;61.41;100806.09;5027663;28;19922;-85
2023/12/07 02:31:08;;;;;;;;;;;;;;;5.29;62.05;100812.59;5023961;28;19917;-84
2023/12/07 02:34:01;;;;;;;;;;;;;;;5.33;61.04;100819.88;5021481;28;19922;-85
2023/12/07 02:36:55;;;;;;;;;;;;;;;5.35;62.30;100823.09;5020660;28;19921;-85
2023/12/07 02:39:45;;;;;;;;;;;;;;;5.11;61.97;100811.34;5020000;28;19917;-84
2023/12/07 02:42:38;;;;;;;;;;;;;;;5.19;62.09;100818.84;5020803;28;19921;-85
2023/12/07 02:45:31;;;;;;;;;;;;;;;5.24;61.52;100813.44;5048106;28;19917;-85
2023/12/07 02:48:23;;;;;;;;;;;;;;;5.47;61.57;100818.19;5021595;28;19921;-85
2023/12/07 02:51:13;;;;;;;;;;;;;;;5.47;61.27;100820.06;5034862;28;19917;-85
2023/12/07 02:54:05;;;;;;;;;;;;;;;5.27;60.84;100828.28;5025683;28;19922;-84
2023/12/07 02:56:52;;;;;;;;;;;;;;;5.27;61.78;100817.50;5023313;28;19922;-84
2023/12/07 02:59:44;;;;;;;;;;;;;;;5.23;61.35;100821.81;5022471;28;19917;-84
2023/12/07 03:02:33;;;;;;;;;;;;;;;5.47;61.23;100822.78;5025447;28;19917;-84
2023/12/07 03:05:25;;;;;;;;;;;;;;;5.60;61.54;100819.44;5023555;28;19918;-84
2023/12/07 03:08:17;;;;;;;;;;;;;;;5.62;61.15;100814.59;5026894;28;19921;-85
2023/12/07 03:11:09;;;;;;;;;;;;;;;5.66;60.25;100818.34;5032574;28;19918;-84
2023/12/07 03:13:56;;;;;;;;;;;;;;;5.58;59.33;100816.25;5032859;28;19921;-85
2023/12/07 03:16:45;;;;;;;;;;;;;;;5.60;59.79;100828.34;5036492;28;19921;-84
2023/12/07 03:19:35;;;;;;;;;;;;;;;5.37;59.05;100833.63;5047463;28;19917;-84
2023/12/07 03:22:27;;;;;;;;;;;;;;;5.24;59.79;100834.19;5030127;28;19917;-84
2023/12/07 03:25:16;;;;;;;;;;;;;;;5.26;59.91;100834.75;5027741;28;19917;-84
2023/12/07 03:28:11;;;;;;;;;;;;;;;5.45;59.43;100839.22;5026029;28;19921;-84
2023/12/07 03:31:04;;;;;;;;;;;;;;;5.51;60.05;100840.00;5028819;28;19917;-84
2023/12/07 03:33:56;;;;;;;;;;;;;;;5.48;59.75;100836.00;5025650;28;19921;-84
2023/12/07 03:36:51;;;;;;;;;;;;;;;5.36;59.22;100830.09;5036761;28;19921;-84
2023/12/07 03:39:43;;;;;;;;;;;;;;;5.38;59.41;100843.31;5023639;28;19921;-84
2023/12/07 03:42:35;;;;;;;;;;;;;;;5.18;59.02;100839.63;5052027;28;19918;-85
2023/12/07 03:45:32;;;;;;;;;;;;;;;4.98;59.13;100845.06;5028120;28;20306;-84
2023/12/07 03:48:24;;;;;;;;;;;;;;;4.87;58.66;100834.63;5025738;28;20386;-84
2023/12/07 03:51:16;;;;;;;;;;;;;;;4.93;59.31;100839.72;5051500;28;19917;-84
2023/12/07 03:54:11;;;;;;;;;;;;;;;5.06;59.36;100836.44;5023964;28;19925;-84
2023/12/07 03:57:02;;;;;;;;;;;;;;;5.15;59.23;100840.19;5024663;28;19921;-84
2023/12/07 03:59:52;;;;;;;;;;;;;;;5.03;59.05;100845.06;5024181;28;19918;-85
2023/12/07 04:02:41;;;;;;;;;;;;;;;4.89;59.61;100838.66;5025775;28;19922;-84
2023/12/07 04:05:31;;;;;;;;;;;;;;;4.83;60.90;100839.75;5024811;28;19917;-85
2023/12/07 04:08:23;;;;;;;;;;;;;;;4.72;60.49;100851.66;5022370;28;19918;-85
2023/12/07 04:11:12;;;;;;;;;;;;;;;4.64;60.27;100849.50;5024954;28;19922;-85
2023/12/07 04:13:57;;;;;;;;;;;;;;;4.81;60.51;100851.88;5030168;28;20375;-84
2023/12/07 04:16:57;;;;;;;;;;;;;;;4.84;60.08;100852.13;5042251;28;19917;-84
2023/12/07 04:19:49;;;;;;;;;;;;;;;4.82;60.19;100865.09;5022861;28;19921;-84
2023/12/07 04:22:41;;;;;;;;;;;;;;;4.78;60.27;100858.59;5041903;28;19924;-84
2023/12/07 04:25:31;;;;;;;;;;;;;;;4.56;59.98;100860.81;5025283;28;19929;-85
2023/12/07 04:28:20;;;;;;;;;;;;;;;4.69;59.52;100871.84;5037393;28;19921;-84
2023/12/07 04:31:08;;;;;;;;;;;;;;;4.63;59.82;100872.91;5055332;28;19921;-83
2023/12/07 04:34:00;;;;;;;;;;;;;;;4.54;59.59;100873.75;5035697;28;19925;-84
2023/12/07 04:36:52;;;;;;;;;;;;;;;4.59;60.14;100879.94;5024065;28;19918;-85
2023/12/07 04:39:41;;;;;;;;;;;;;;;4.59;59.61;100879.94;5036261;28;19922;-84
2023/12/07 04:42:30;;;;;;;;;;;;;;;4.41;60.15;100879.69;5022698;28;19921;-84
2023/12/07 04:45:22;;;;;;;;;;;;;;;4.50;60.96;100881.56;5050505;28;19929;-84
2023/12/07 04:48:12;;;;;;;;;;;;;;;4.49;60.77;100887.22;5023525;28;20298;-85
2023/12/07 04:51:04;;;;;;;;;;;;;;;4.45;61.81;100897.72;5037283;28;19917;-84
2023/12/07 04:53:56;;;;;;;;;;;;;;;4.42;61.89;100900.94;5023216;28;19921;-84
2023/12/07 04:56:46;;;;;;;;;;;;;;;4.24;61.92;100904.97;5035426;28;19918;-84
2023/12/07 04:59:38;;;;;;;;;;;;;;;4.43;61.61;100915.19;5021471;28;19917;-84
2023/12/07 05:02:27;;;;;;;;;;;;;;;4.57;60.69;100905.53;5021757;28;19917;-84
2023/12/07 05:05:19;;;;;;;;;;;;;;;4.53;59.58;100915.19;5024077;28;20302;-84
2023/12/07 05:08:11;;;;;;;;;;;;;;;4.55;60.33;100915.75;5040603;28;20183;-84
2023/12/07 05:11:04;;;;;;;;;;;;;;;4.69;60.52;100922.19;5044596;28;19921;-84
2023/12/07 05:13:53;;;;;;;;;;;;;;;4.71;59.94;100928.94;5040538;28;19925;-85
2023/12/07 05:16:45;;;;;;;;;;;;;;;4.57;60.27;100929.75;5041196;28;20514;-85
2023/12/07 05:19:35;;;;;;;;;;;;;;;4.51;59.60;100933.53;5045160;28;19917;-84
2023/12/07 05:22:27;;;;;;;;;;;;;;;4.43;59.38;100934.06;5040901;28;19917;-85
2023/12/07 05:25:14;;;;;;;;;;;;;;;4.32;60.44;100935.16;5032331;28;19921;-85
2023/12/07 05:28:03;;;;;;;;;;;;;;;4.22;61.25;100950.19;5054153;28;19936;-84
2023/12/07 05:30:56;;;;;;;;;;;;;;;4.23;62.42;100943.72;5056240;28;19917;-86
2023/12/07 05:33:48;;;;;;;;;;;;;;;4.25;63.07;100949.66;5040806;28;19921;-84
2023/12/07 05:36:40;;;;;;;;;;;;;;;4.41;63.35;100950.50;5026650;28;19917;-84
2023/12/07 05:39:32;;;;;;;;;;;;;;;4.55;64.24;100948.88;5025803;28;19917;-85
2023/12/07 05:42:22;;;;;;;;;;;;;;;4.21;62.04;100951.28;5038137;28;19921;-85
2023/12/07 05:45:14;;;;;;;;;;;;;;;4.34;64.66;100952.63;5034112;28;19925;-85
2023/12/07 05:48:06;;;;;;;;;;;;;;;4.20;62.29;100962.31;5058022;28;19918;-85
2023/12/07 05:50:58;;;;;;;;;;;;;;;3.91;62.91;100970.06;5041737;28;19917;-85
2023/12/07 05:53:45;;;;;;;;;;;;;;;3.68;64.09;100970.50;5040251;28;19921;-84
2023/12/07 05:56:38;;;;;;;;;;;;;;;3.84;64.36;100966.78;5044801;28;20309;-84
2023/12/07 05:59:30;;;;;;;;;;;;;;;4.02;65.32;100966.28;5040631;28;20294;-84
2023/12/07 06:02:22;;;;;;;;;;;;;;;4.02;64.80;100968.97;5039742;28;20317;-84
2023/12/07 06:05:14;;;;;;;;;;;;;;;3.78;64.43;100975.91;5036039;28;19925;-84
2023/12/07 06:08:04;;;;;;;;;;;;;;;3.86;64.80;100975.38;5039407;28;19917;-83
2023/12/07 06:10:56;;;;;;;;;;;;;;;3.77;64.72;100977.78;5039517;28;19921;-84
2023/12/07 06:13:46;;;;;;;;;;;;;;;3.83;66.53;100987.50;5025215;28;19921;-84
2023/12/07 06:16:38;;;;;;;;;;;;;;;3.97;66.10;100990.50;5037450;28;20418;-85
2023/12/07 06:19:30;;;;;;;;;;;;;;;4.02;65.87;100989.69;5044153;28;19917;-85
2023/12/07 06:22:22;;;;;;;;;;;;;;;3.73;65.72;100968.63;5027415;28;19917;-84
2023/12/07 06:25:20;;;;;;;;;;;;;;;3.98;65.78;101000.19;5038221;28;20386;-83
2023/12/07 06:28:12;;;;;;;;;;;;;;;3.92;66.06;101003.94;5045466;28;20045;-84
2023/12/07 06:31:11;;;;;;;;;;;;;;;3.84;66.29;101002.56;5037847;28;19921;-83
2023/12/07 06:34:04;;;;;;;;;;;;;;;3.93;66.08;101008.25;5044324;28;19944;-84
2023/12/07 06:36:53;;;;;;;;;;;;;;;4.10;67.32;101013.41;5029123;28;19918;-83
2023/12/07 06:39:45;;;;;;;;;;;;;;;4.18;67.13;101010.19;5055338;28;19917;-84
2023/12/07 06:42:37;;;;;;;;;;;;;;;4.44;67.91;101013.75;5067417;28;19917;-84
2023/12/07 06:45:29;;;;;;;;;;;;;;;4.38;67.01;101020.19;5025377;28;19917;-83
2023/12/07 06:48:21;;;;;;;;;;;;;;;4.37;67.47;101023.97;5027786;28;20441;-85
2023/12/07 06:51:12;;;;;;;;;;;;;;;4.45;67.41;101023.44;5029674;28;19917;-84
2023/12/07 06:54:05;;;;;;;;;;;;;;;4.47;67.42;101026.69;5063196;28;19921;-85
2023/12/07 06:56:55;;;;;;;;;;;;;;;4.51;67.16;101031.28;5060981;28;20309;-84
2023/12/07 06:59:46;;;;;;;;;;;;;;;4.50;67.02;101034.22;5040716;28;20302;-85
2023/12/07 07:02:36;;;;;;;;;;;;;;;4.52;67.65;101037.47;5043549;28;19921;-84
2023/12/07 07:05:25;;;;;;;;;;;;;;;4.53;68.45;101036.38;5061617;28;19917;-83
2023/12/07 07:08:17;;;;;;;;;;;;;;;4.50;68.24;101042.31;5043017;28;19920;-85
2023/12/07 07:11:12;;;;;;;;;;;;;;;4.37;66.13;101050.91;5041586;28;20410;-85
2023/12/07 07:14:04;;;;;;;;;;;;;;;4.19;67.16;101049.50;5045069;28;19925;-85
2023/12/07 07:16:52;;;;;;;;;;;;;;;4.23;68.01;101050.56;5042488;28;19917;-84
2023/12/07 07:19:42;;;;;;;;;;;;;;;4.23;67.29;101047.88;5041408;28;20313;-82
2023/12/07 07:22:34;;;;;;;;;;;;;;;3.95;66.83;101049.16;5058962;28;19921;-84
2023/12/07 07:25:24;;;;;;;;;;;;;;;4.01;67.72;101053.47;5038682;28;20382;-84
2023/12/07 07:28:14;;;;;;;;;;;;;;;3.95;66.56;101059.91;5050164;28;19925;-83
2023/12/07 07:31:06;;;;;;;;;;;;;;;4.10;67.56;101065.34;5060697;28;19918;-83
2023/12/07 07:33:58;;;;;;;;;;;;;;;4.01;67.05;101072.31;5042282;28;19921;-82
2023/12/07 07:36:50;;;;;;;;;;;;;;;4.65;69.53;101077.34;5021480;28;19921;-82
2023/12/07 07:39:42;;;;;;;;;;;;;;;4.56;66.61;101082.44;5025946;28;19917;-82
2023/12/07 07:42:31;;;;;;;;;;;;;;;4.35;66.74;101085.34;5037253;28;19917;-81
2023/12/07 07:45:23;;;;;;;;;;;;;;;4.51;70.74;101084.31;5038364;28;19917;-81
2023/12/07 07:48:12;;;;;;;;;;;;;;;4.30;67.81;101083.44;5035839;28;20394;-81
2023/12/07 07:51:04;;;;;;;;;;;;;;;4.26;67.76;101079.66;5062667;28;19933;-81
2023/12/07 07:53:56;;;;;;;;;;;;;;;4.30;67.90;101089.66;5025005;28;19921;-82
2023/12/07 07:56:48;;;;;;;;;;;;;;;4.49;67.69;101091.84;5036667;28;19916;-81
2023/12/07 07:59:37;;;;;;;;;;;;;;;6.22;76.58;101090.66;5023443;28;19917;-81
2023/12/07 08:02:27;;;;;;;;;;;;;;;5.29;65.90;101093.00;5032510;28;19917;-81
2023/12/07 08:05:19;;;;;;;;;;;;;;;4.62;68.16;101091.34;5037510;28;19917;-82
2023/12/07 08:08:08;;;;;;;;;;;;;;;4.08;70.02;101099.78;5037347;28;19920;-82
2023/12/07 08:11:00;;;;;;;;;;;;;;;4.39;69.96;101116.03;5036794;28;19940;-80
2023/12/07 08:13:52;;;;;;;;;;;;;;;4.55;68.64;101112.31;5035978;28;20294;-83
2023/12/07 08:16:44;;;;;;;;;;;;;;;4.65;69.06;101101.59;5037589;28;19921;-82
2023/12/07 08:19:34;;;;;;;;;;;;;;;4.70;68.33;101112.38;5035962;28;19917;-82
2023/12/07 08:22:26;;;;;;;;;;;;;;;4.74;68.92;101119.63;5026889;28;19940;-85
2023/12/07 08:25:21;;;;;;;;;;;;;;;4.71;69.32;101124.75;5039413;28;19921;-82
2023/12/07 08:28:13;;;;;;;;;;;;;;;4.75;69.98;101123.16;5037023;28;20286;-84
2023/12/07 08:31:06;;;;;;;;;;;;;;;4.77;69.86;101122.88;5016210;28;19917;-83
2023/12/07 08:33:58;;;;;;;;;;;;;;;4.90;69.14;101125.88;5036046;28;19921;-84
2023/12/07 08:36:50;;;;;;;;;;;;;;;4.92;69.74;101137.19;5035185;28;19921;-84
2023/12/07 08:39:42;;;;;;;;;;;;;;;4.82;70.25;101136.38;5046471;28;20386;-83
2023/12/07 08:42:31;;;;;;;;;;;;;;;4.82;70.83;101139.06;5037096;28;19917;-83
2023/12/07 08:45:23;;;;;;;;;;;;;;;4.91;72.08;101138.28;5026969;28;19917;-84
2023/12/07 08:48:16;;;;;;;;;;;;;;;4.96;72.57;101129.38;5036242;28;19917;-83
2023/12/07 08:51:08;;;;;;;;;;;;;;;5.07;71.89;101133.72;5037294;28;19917;-83
2023/12/07 08:54:00;;;;;;;;;;;;;;;5.13;71.69;101138.81;5037163;28;19921;-83
2023/12/07 08:56:52;;;;;;;;;;;;;;;5.18;72.14;101137.22;5036927;28;19921;-82
2023/12/07 08:59:42;;;;;;;;;;;;;;;5.22;72.93;101139.13;5016970;28;20298;-80
2023/12/07 09:02:31;;;;;;;;;;;;;;;5.30;73.05;101140.44;5017219;28;19918;-82
2023/12/07 09:05:21;;;;;;;;;;;;;;;5.36;73.80;101139.38;5019337;28;19925;-82
2023/12/07 09:08:13;;;;;;;;;;;;;;;5.01;75.91;101140.97;5022789;28;19921;-82
2023/12/07 09:11:30;;;;;;;;;;;;;;;4.83;77.08;101143.34;5112603;27;19912;-80
2023/12/07 09:14:22;;;;;;;;;;;;;;;5.13;76.73;101149.59;5090057;28;19920;-81
2023/12/07 09:17:11;;;;;;;;;;;;;;;4.91;78.34;101153.63;5078260;28;20416;-82
2023/12/07 09:20:01;;;;;;;;;;;;;;;5.09;77.70;101153.91;5072723;28;19952;-82
2023/12/07 09:22:48;;;;;;;;;;;;;;;5.39;76.59;101152.31;5073495;28;19923;-82
2023/12/07 09:25:40;;;;;;;;;;;;;;;5.48;76.52;101150.72;5074755;28;20293;-82
2023/12/07 09:28:32;;;;;;;;;;;;;;;5.34;77.24;101163.09;5077927;28;19917;-83
2023/12/07 09:31:22;;;;;;;;;;;;;;;5.47;77.11;101149.91;5081523;28;19916;-83
2023/12/07 09:34:17;;;;;;;;;;;;;;;5.59;76.52;101160.38;5089045;28;19917;-82
2023/12/07 09:37:12;;;;;;;;;;;;;;;5.81;74.57;101162.81;5083330;28;19923;-82
2023/12/07 09:40:04;;;;;;;;;;;;;;;5.99;74.23;101173.06;5105083;28;20401;-83
2023/12/07 09:42:56;;;;;;;;;;;;;;;6.01;73.69;101177.09;5083469;28;19917;-82
2023/12/07 09:45:49;;;;;;;;;;;;;;;6.01;73.16;101174.41;5096881;28;19917;-82
2023/12/07 09:48:39;;;;;;;;;;;;;;;6.22;72.51;101168.94;5065234;28;19920;-83
2023/12/07 09:51:31;;;;;;;;;;;;;;;6.27;72.38;101174.34;5073056;28;19916;-84
2023/12/07 09:54:24;;;;;;;;;;;;;;;6.88;70.85;101153.25;5085019;28;19916;-83
2023/12/07 09:57:14;;;;;;;;;;;;;;;14.55;47.50;101168.91;5073481;28;19916;-83
2023/12/07 10:00:04;;;;;;;;;;;;;;;16.90;38.81;101176.03;5078813;28;19950;-82
2023/12/07 10:02:51;;;;;;;;;;;;;;;17.17;38.23;101174.50;5082839;28;19916;-83
2023/12/07 10:06:00;;;;;;;;;;;;;;;18.41;35.38;101181.38;5090264;28;20321;-82
2023/12/07 10:08:50;;;;;;;;;;;;;;;18.53;34.23;101175.78;5072087;28;19921;-82
2023/12/07 10:11:37;;;;;;;;;;;;;;;19.66;32.58;101174.69;5075019;28;19925;-82
2023/12/07 10:14:30;;;;;;;;;;;;;;;18.70;33.51;101175.41;5087607;28;20407;-84
2023/12/07 10:17:19;;;;;;;;;;;;;;;20.00;31.85;101172.97;5091374;28;19921;-83
2023/12/07 10:20:09;;;;;;;;;;;;;;;19.49;31.97;101166.88;5072360;28;19921;-82
2023/12/07 10:23:11;;;;;;;;;;;;;;;19.88;31.51;101160.13;5061059;28;20309;-83
2023/12/07 10:26:10;;;;;;;;;;;;;;;21.82;29.16;101160.50;5061969;28;19916;-83
2023/12/07 10:29:02;;;;;;;;;;;;;;;21.22;29.21;101149.56;5058732;28;19920;-83
2023/12/07 10:31:49;;;;;;;;;;;;;;;20.28;30.56;101153.28;5054074;28;19920;-83
2023/12/07 10:34:39;;;;;;;;;;;;;;;22.24;28.55;101154.59;5072845;28;19917;-83
2023/12/07 10:37:34;;;;;;;;;;;;;;;20.96;29.20;101153.16;5054982;28;19916;-82
2023/12/07 10:40:21;;;;;;;;;;;;;;;23.50;25.88;101148.22;5094593;28;19921;-82
2023/12/07 10:43:15;;;;;;;;;;;;;;;22.15;26.51;101144.63;5055114;28;20297;-81
2023/12/07 10:46:05;;;;;;;;;;;;;;;24.11;25.18;101143.53;5064196;28;19916;-82
2023/12/07 10:49:02;;;;;;;;;;;;;;;23.37;26.28;101139.41;5061562;28;19917;-81
2023/12/07 10:51:58;;;;;;;;;;;;;;;24.24;24.49;101130.84;5063620;28;19916;-82
2023/12/07 10:54:53;;;;;;;;;;;;;;;27.57;22.02;101139.66;5087206;28;19921;-82
2023/12/07 10:57:40;;;;;;;;;;;;;;;27.27;21.59;101145.22;5063809;28;19917;-84
2023/12/07 11:00:31;;;;;;;;;;;;;;;25.50;23.18;101145.59;5067251;28;19925;-82
2023/12/07 11:03:23;;;;;;;;;;;;;;;25.94;22.82;101141.34;5063097;28;19932;-83
2023/12/07 11:06:15;;;;;;;;;;;;;;;24.83;23.76;101139.50;5052856;28;19916;-82
2023/12/07 11:09:09;;;;;;;;;;;;;;;28.72;19.91;101138.16;5060688;28;19917;-83
2023/12/07 11:12:10;;;;;;;;;;;;;;;27.90;20.88;101135.94;5062336;28;19917;-82
2023/12/07 11:14:58;;;;;;;;;;;;;;;30.31;18.15;101136.63;5077707;28;20309;-83
2023/12/07 11:17:53;;;;;;;;;;;;;;;29.78;19.14;101143.50;5065941;28;19916;-82
2023/12/07 11:20:46;;;;;;;;;;;;;;;27.41;21.49;101137.44;5061496;28;19920;-82
2023/12/07 11:23:35;;;;;;;;;;;;;;;29.20;19.18;101132.00;5060766;28;19917;-84
2023/12/07 11:26:23;;;;;;;;;;;;;;;28.42;20.24;101124.31;5054502;28;19916;-83
2023/12/07 11:29:10;;;;;;;;;;;;;;;31.15;17.55;101118.66;5062337;28;19920;-84
2023/12/07 11:32:07;;;;;;;;;;;;;;;29.73;18.36;101110.38;5067802;28;19921;-84
2023/12/07 11:34:52;;;;;;;;;;;;;;;31.98;17.23;101115.66;5075049;28;20293;-85
2023/12/07 11:38:01;;;;;;;;;;;;;;;25.95;22.28;101106.72;5063360;28;19916;-84
2023/12/07 11:40:51;;;;;;;;;;;;;;;26.34;22.83;101101.59;5060471;28;19924;-85
2023/12/07 11:43:44;;;;;;;;;;;;;;;30.16;18.78;101096.13;5055549;28;19921;-85
2023/12/07 11:46:36;;;;;;;;;;;;;;;29.77;18.56;101097.84;5062038;28;19917;-85
2023/12/07 11:49:31;;;;;;;;;;;;;;;31.18;17.15;101103.72;5062947;28;19916;-85
2023/12/07 11:52:22;;;;;;;;;;;;;;;32.39;16.09;101097.00;5061423;28;19928;-85
2023/12/07 11:55:14;;;;;;;;;;;;;;;29.15;18.92;101087.69;5064835;28;19917;-85
2023/12/07 11:58:06;;;;;;;;;;;;;;;31.32;17.17;101094.84;5062919;28;19917;-85
2023/12/07 12:00:57;;;;;;;;;;;;;;;28.76;19.35;101094.06;5062224;28;20426;-84
2023/12/07 12:03:49;;;;;;;;;;;;;;;28.70;19.98;101087.38;5064951;28;19917;-85
2023/12/07 12:06:39;;;;;;;;;;;;;;;30.82;17.74;101091.94;5056070;28;19917;-85
2023/12/07 12:09:28;;;;;;;;;;;;;;;32.05;16.61;101076.00;5057879;28;19917;-85
2023/12/07 12:12:17;;;;;;;;;;;;;;;29.51;18.40;101068.03;5060861;28;19920;-84
2023/12/07 12:15:10;;;;;;;;;;;;;;;28.04;19.97;101070.59;5062038;28;19917;-84
2023/12/07 12:18:02;;;;;;;;;;;;;;;27.64;20.74;101067.66;5060870;28;19920;-85
2023/12/07 12:20:52;;;;;;;;;;;;;;;30.69;17.45;101077.03;5060880;28;19921;-85
2023/12/07 12:23:53;;;;;;;;;;;;;;;31.44;17.20;101082.81;5058438;28;19920;-84
2023/12/07 12:26:46;;;;;;;;;;;;;;;31.31;17.13;101089.66;5059548;28;19916;-84
2023/12/07 12:29:39;;;;;;;;;;;;;;;30.48;17.57;101082.03;5060565;28;19916;-84
2023/12/07 12:32:36;;;;;;;;;;;;;;;30.05;17.71;101078.78;5084908;28;19921;-85
2023/12/07 12:35:25;;;;;;;;;;;;;;;29.81;18.00;101068.94;5058005;28;19917;-85
2023/12/07 12:38:17;;;;;;;;;;;;;;;26.60;21.08;101061.06;5057561;28;19916;-84
2023/12/07 12:41:09;;;;;;;;;;;;;;;28.56;19.06;101070.84;5059479;28;19924;-84
2023/12/07 12:43:58;;;;;;;;;;;;;;;25.97;21.86;101057.72;5059941;28;19916;-88
2023/12/07 12:46:49;;;;;;;;;;;;;;;28.34;19.66;101050.88;5080083;28;20317;-84
2023/12/07 12:49:47;;;;;;;;;;;;;;;29.30;18.64;101043.31;5086413;28;19916;-85
2023/12/07 12:52:39;;;;;;;;;;;;;;;28.80;20.24;101032.44;5088428;28;19920;-86
2023/12/07 12:55:29;;;;;;;;;;;;;;;27.49;20.85;101027.19;5063870;28;20382;-85
2023/12/07 12:58:20;;;;;;;;;;;;;;;30.33;18.49;101041.53;5065193;28;19917;-85
2023/12/07 13:01:20;;;;;;;;;;;;;;;29.85;18.45;101047.22;5046996;28;19917;-85
2023/12/07 13:04:09;;;;;;;;;;;;;;;28.78;19.23;101049.66;5063222;28;19920;-84
2023/12/07 13:07:00;;;;;;;;;;;;;;;29.16;18.50;101055.63;5051265;28;19917;-85
2023/12/07 13:09:47;;;;;;;;;;;;;;;29.10;19.39;101053.78;5081887;28;20321;-86
2023/12/07 13:12:36;;;;;;;;;;;;;;;28.23;20.26;101057.91;5059775;28;19917;-85
2023/12/07 13:15:25;;;;;;;;;;;;;;;26.29;22.36;101056.63;5065287;28;19916;-85
2023/12/07 13:18:15;;;;;;;;;;;;;;;26.33;22.26;101058.19;5063846;28;19920;-84
2023/12/07 13:21:02;;;;;;;;;;;;;;;24.58;23.29;101058.91;5060537;28;19921;-86
2023/12/07 13:23:51;;;;;;;;;;;;;;;23.95;24.64;101054.22;5059490;28;19917;-88
2023/12/07 13:26:43;;;;;;;;;;;;;;;21.08;28.78;101050.59;5076220;28;20394;-86
2023/12/07 13:29:33;;;;;;;;;;;;;;;19.51;31.45;101055.00;5047818;28;19921;-86
2023/12/07 13:32:22;;;;;;;;;;;;;;;17.92;34.27;101065.34;5074440;28;19921;-86
2023/12/07 13:35:10;;;;;;;;;;;;;;;16.60;37.16;101066.47;5063519;28;20413;-86
2023/12/07 13:37:59;;;;;;;;;;;;;;;16.45;37.96;101064.41;5076720;28;19917;-86
2023/12/07 13:40:49;;;;;;;;;;;;;;;15.60;39.14;101055.38;5061342;28;20362;-87
2023/12/07 13:43:41;;;;;;;;;;;;;;;15.12;40.30;101067.81;5074935;28;19917;-87
2023/12/07 13:46:31;;;;;;;;;;;;;;;14.98;40.56;101061.81;5068212;28;19917;-86
2023/12/07 13:49:23;;;;;;;;;;;;;;;14.81;41.43;101065.50;5060566;28;19916;-87
2023/12/07 13:52:16;;;;;;;;;;;;;;;14.26;42.80;101067.63;5063940;28;19921;-86
2023/12/07 13:55:05;;;;;;;;;;;;;;;14.28;43.73;101074.38;5061377;28;19920;-87
2023/12/07 13:57:57;;;;;;;;;;;;;;;13.87;44.98;101083.25;5063266;28;19916;-86
2023/12/07 14:00:47;;;;;;;;;;;;;;;13.52;46.08;101084.50;5065754;28;19917;-86
2023/12/07 14:03:34;;;;;;;;;;;;;;;13.38;47.05;101087.44;5063200;28;19917;-86
2023/12/07 14:06:24;;;;;;;;;;;;;;;13.23;47.64;101085.22;5066730;28;19921;-87
2023/12/07 14:09:16;;;;;;;;;;;;;;;13.08;48.03;101097.41;5063326;28;19921;-86
2023/12/07 14:12:08;;;;;;;;;;;;;;;13.50;47.47;101101.25;5062738;28;19921;-86
2023/12/07 14:14:56;;;;;;;;;;;;;;;13.15;47.73;101107.91;5064729;28;19917;-87
2023/12/07 14:17:48;;;;;;;;;;;;;;;13.13;47.90;101110.13;5069865;28;20370;-87
2023/12/07 14:20:40;;;;;;;;;;;;;;;12.94;48.36;101117.81;5068871;28;19917;-87
2023/12/07 14:23:29;;;;;;;;;;;;;;;12.94;48.58;101121.34;5062656;28;19924;-86
2023/12/07 14:26:21;;;;;;;;;;;;;;;13.13;48.04;101123.78;5063093;28;19920;-86
2023/12/07 14:29:14;;;;;;;;;;;;;;;13.40;47.55;101126.19;5052194;28;19920;-86
2023/12/07 14:32:04;;;;;;;;;;;;;;;13.58;47.30;101135.13;5064270;28;19925;-86
2023/12/07 14:34:55;;;;;;;;;;;;;;;13.62;46.77;101136.88;5063194;28;19916;-85
2023/12/07 14:37:42;;;;;;;;;;;;;;;13.64;46.68;101139.31;5067040;28;20293;-86
2023/12/07 14:40:32;;;;;;;;;;;;;;;13.73;46.15;101147.47;5079433;28;19924;-86
2023/12/07 14:43:24;;;;;;;;;;;;;;;13.71;45.73;101145.09;5062716;28;19917;-86
2023/12/07 14:46:16;;;;;;;;;;;;;;;13.68;45.32;101145.72;5066469;28;19917;-87
2023/12/07 14:49:04;;;;;;;;;;;;;;;13.69;45.02;101142.66;5063539;28;19917;-86